createdAt,value
2022-08-19T00:00:30.068Z,1.00
2022-08-19T00:01:30.606Z,1.00
2022-08-19T00:02:30.038Z,1.00
2022-08-19T00:03:30.043Z,1.00
2022-08-19T00:04:30.174Z,1.00
2022-08-19T00:05:30.024Z,1.00
2022-08-19T00:06:30.012Z,1.00
2022-08-19T00:07:30.005Z,1.00
2022-08-19T00:08:29.996Z,1.00
2022-08-19T00:09:29.976Z,1.00
2022-08-19T00:10:29.994Z,1.00
2022-08-19T00:11:29.979Z,1.00
2022-08-19T00:12:29.974Z,1.00
2022-08-19T00:13:29.950Z,1.00
2022-08-19T00:14:29.948Z,1.00
2022-08-19T00:15:29.965Z,1.00
2022-08-19T00:16:29.934Z,1.00
2022-08-19T00:17:29.942Z,1.00
2022-08-19T00:18:29.918Z,1.00
2022-08-19T00:19:29.919Z,1.00
2022-08-19T00:20:29.902Z,1.00
2022-08-19T00:21:29.923Z,1.00
2022-08-19T00:22:29.887Z,1.00
2022-08-19T00:23:29.893Z,1.00
2022-08-19T00:24:29.886Z,1.00
2022-08-19T00:25:30.734Z,1.00
2022-08-19T00:26:29.868Z,1.00
2022-08-19T00:27:29.878Z,1.00
2022-08-19T00:28:29.849Z,1.00
2022-08-19T00:29:29.839Z,1.00
2022-08-19T00:30:29.836Z,1.00
2022-08-19T00:31:29.845Z,1.00
2022-08-19T00:32:29.831Z,1.00
2022-08-19T00:33:29.823Z,1.00
2022-08-19T00:34:29.821Z,1.00
2022-08-19T00:35:29.809Z,1.00
2022-08-19T00:36:29.783Z,1.00
2022-08-19T00:37:29.784Z,1.00
2022-08-19T00:38:37.398Z,1.00
2022-08-19T00:39:30.814Z,1.00
2022-08-19T00:40:29.754Z,1.00
2022-08-19T00:41:29.756Z,1.00
2022-08-19T00:42:29.760Z,1.00
2022-08-19T00:43:29.740Z,1.00
2022-08-19T00:44:29.731Z,1.00
2022-08-19T00:45:29.722Z,1.00
2022-08-19T00:46:29.717Z,1.00
2022-08-19T00:47:29.710Z,1.00
2022-08-19T00:48:29.719Z,1.00
2022-08-19T00:49:29.712Z,1.00
2022-08-19T00:50:29.694Z,1.00
2022-08-19T00:51:29.673Z,1.00
2022-08-19T00:52:29.686Z,1.00
2022-08-19T00:53:29.661Z,1.00
2022-08-19T00:54:29.903Z,1.00
2022-08-19T00:55:29.642Z,1.00
2022-08-19T00:56:29.636Z,1.00
2022-08-19T00:57:29.627Z,1.00
2022-08-19T00:58:29.649Z,1.00
2022-08-19T01:00:00.516Z,1.00
2022-08-19T01:00:30.599Z,1.00
2022-08-19T01:01:29.652Z,1.00
2022-08-19T01:02:29.588Z,1.00
2022-08-19T01:03:29.578Z,1.00
2022-08-19T01:04:30.591Z,1.00
2022-08-19T01:05:29.565Z,1.00
2022-08-19T01:06:29.552Z,1.00
2022-08-19T01:07:37.607Z,1.00
2022-08-19T01:08:30.570Z,1.00
2022-08-19T01:09:29.541Z,1.00
2022-08-19T01:10:33.537Z,1.00
2022-08-19T01:11:30.527Z,1.00
2022-08-19T01:12:29.512Z,1.00
2022-08-19T01:13:29.504Z,1.00
2022-08-19T01:14:30.532Z,1.00
2022-08-19T01:15:29.496Z,1.00
2022-08-19T01:16:29.505Z,1.00
2022-08-19T01:17:29.482Z,1.00
2022-08-19T01:18:29.485Z,1.00
2022-08-19T01:19:29.466Z,1.00
2022-08-19T01:20:29.454Z,1.00
2022-08-19T01:21:29.466Z,1.00
2022-08-19T01:22:33.524Z,1.00
2022-08-19T01:23:29.436Z,1.00
2022-08-19T01:24:29.433Z,1.00
2022-08-19T01:25:29.421Z,1.00
2022-08-19T01:26:29.417Z,1.00
2022-08-19T01:27:29.504Z,1.00
2022-08-19T01:28:39.640Z,1.00
2022-08-19T01:29:29.403Z,1.00
2022-08-19T01:30:29.392Z,1.00
2022-08-19T01:31:29.394Z,1.00
2022-08-19T01:32:33.237Z,1.00
2022-08-19T01:33:29.371Z,1.00
2022-08-19T01:34:29.377Z,1.00
2022-08-19T01:35:29.351Z,1.00
2022-08-19T01:36:29.348Z,1.00
2022-08-19T01:37:29.351Z,1.00
2022-08-19T01:38:29.336Z,1.00
2022-08-19T01:39:29.421Z,1.00
2022-08-19T01:40:29.327Z,1.00
2022-08-19T01:41:29.302Z,1.00
2022-08-19T01:42:30.587Z,1.00
2022-08-19T01:43:29.300Z,1.00
2022-08-19T01:44:29.291Z,1.00
2022-08-19T01:45:29.304Z,1.00
2022-08-19T01:46:29.273Z,1.00
2022-08-19T01:47:29.266Z,1.00
2022-08-19T01:48:29.258Z,1.00
2022-08-19T01:49:29.264Z,1.00
2022-08-19T01:50:29.264Z,1.00
2022-08-19T01:51:29.237Z,1.00
2022-08-19T01:52:30.233Z,1.00
2022-08-19T01:53:30.614Z,1.00
2022-08-19T01:54:29.215Z,1.00
2022-08-19T01:55:29.215Z,1.00
2022-08-19T01:56:29.217Z,1.00
2022-08-19T01:57:29.189Z,1.00
2022-08-19T01:58:29.197Z,1.00
2022-08-19T01:59:29.177Z,1.00
2022-08-19T02:00:29.195Z,1.00
2022-08-19T02:01:29.180Z,1.00
2022-08-19T02:02:29.158Z,1.00
2022-08-19T02:03:29.143Z,1.00
2022-08-19T02:04:29.142Z,1.00
2022-08-19T02:05:29.135Z,1.00
2022-08-19T02:06:29.142Z,1.00
2022-08-19T02:07:29.119Z,1.00
2022-08-19T02:08:29.128Z,1.00
2022-08-19T02:09:29.145Z,1.00
2022-08-19T02:10:29.095Z,1.00
2022-08-19T02:11:29.093Z,1.00
2022-08-19T02:12:29.074Z,1.00
2022-08-19T02:13:29.071Z,1.00
2022-08-19T02:14:29.058Z,1.00
2022-08-19T02:15:29.072Z,1.00
2022-08-19T02:16:29.045Z,1.00
2022-08-19T02:17:29.047Z,1.00
2022-08-19T02:18:29.045Z,1.00
2022-08-19T02:19:29.026Z,1.00
2022-08-19T02:20:29.011Z,1.00
2022-08-19T02:21:29.007Z,1.00
2022-08-19T02:22:28.998Z,1.00
2022-08-19T02:23:29.011Z,1.00
2022-08-19T02:24:28.982Z,1.00
2022-08-19T02:25:28.992Z,1.00
2022-08-19T02:26:28.986Z,1.00
2022-08-19T02:27:28.963Z,1.00
2022-08-19T02:28:28.958Z,1.00
2022-08-19T02:29:28.956Z,1.00
2022-08-19T02:30:28.965Z,1.00
2022-08-19T02:31:28.931Z,1.00
2022-08-19T02:32:28.925Z,1.00
2022-08-19T02:33:28.926Z,1.00
2022-08-19T02:34:28.910Z,1.00
2022-08-19T02:35:28.914Z,1.00
2022-08-19T02:36:28.915Z,1.00
2022-08-19T02:37:28.897Z,1.00
2022-08-19T02:38:28.891Z,1.00
2022-08-19T02:39:28.875Z,1.00
2022-08-19T02:40:28.863Z,1.00
2022-08-19T02:41:28.886Z,1.00
2022-08-19T02:42:28.858Z,1.00
2022-08-19T02:43:28.843Z,1.00
2022-08-19T02:44:31.559Z,1.00
2022-08-19T02:45:28.832Z,1.00
2022-08-19T02:46:28.821Z,1.00
2022-08-19T02:47:28.838Z,1.00
2022-08-19T02:48:28.814Z,1.00
2022-08-19T02:49:28.826Z,1.00
2022-08-19T02:50:28.797Z,1.00
2022-08-19T02:51:28.801Z,1.00
2022-08-19T02:52:28.785Z,1.00
2022-08-19T02:53:28.773Z,1.00
2022-08-19T02:54:28.785Z,1.00
2022-08-19T02:55:28.756Z,1.00
2022-08-19T02:56:28.772Z,1.00
2022-08-19T02:57:28.744Z,1.00
2022-08-19T02:58:28.760Z,1.00
2022-08-19T02:59:28.724Z,1.00
2022-08-19T03:00:28.713Z,1.00
2022-08-19T03:01:28.754Z,1.00
2022-08-19T03:02:28.727Z,1.00
2022-08-19T03:03:28.698Z,1.00
2022-08-19T03:04:28.695Z,1.00
2022-08-19T03:05:46.907Z,1.00
2022-08-19T03:06:29.671Z,1.00
2022-08-19T03:07:28.675Z,1.00
2022-08-19T03:08:28.667Z,1.00
2022-08-19T03:09:28.647Z,1.00
2022-08-19T03:10:28.631Z,1.00
2022-08-19T03:11:28.638Z,1.00
2022-08-19T03:12:28.628Z,1.00
2022-08-19T03:13:28.633Z,1.00
2022-08-19T03:14:28.634Z,1.00
2022-08-19T03:15:28.596Z,1.00
2022-08-19T03:16:28.596Z,1.00
2022-08-19T03:17:28.606Z,1.00
2022-08-19T03:18:28.571Z,1.00
2022-08-19T03:19:28.572Z,1.00
2022-08-19T03:20:28.560Z,1.00
2022-08-19T03:21:28.553Z,1.00
2022-08-19T03:22:28.545Z,1.00
2022-08-19T03:23:28.561Z,1.00
2022-08-19T03:24:28.539Z,1.00
2022-08-19T03:25:28.526Z,1.00
2022-08-19T03:26:28.514Z,1.00
2022-08-19T03:27:34.444Z,1.00
2022-08-19T03:28:29.527Z,1.00
2022-08-19T03:29:28.505Z,1.00
2022-08-19T03:30:28.488Z,1.00
2022-08-19T03:31:44.795Z,1.00
2022-08-19T03:32:33.044Z,1.00
2022-08-19T03:33:28.718Z,1.00
2022-08-19T03:34:28.473Z,1.00
2022-08-19T03:35:28.456Z,1.00
2022-08-19T03:36:28.555Z,1.00
2022-08-19T03:37:28.440Z,1.00
2022-08-19T03:38:28.431Z,1.00
2022-08-19T03:39:28.440Z,1.00
2022-08-19T03:40:28.408Z,1.00
2022-08-19T03:41:43.312Z,1.00
2022-08-19T03:42:38.690Z,1.00
2022-08-19T03:43:29.392Z,1.00
2022-08-19T03:44:28.382Z,1.00
2022-08-19T03:45:28.379Z,1.00
2022-08-19T03:46:28.373Z,1.00
2022-08-19T03:47:28.360Z,1.00
2022-08-19T03:48:28.373Z,1.00
2022-08-19T03:49:29.098Z,1.00
2022-08-19T03:50:28.338Z,1.00
2022-08-19T03:51:30.880Z,2.00
2022-08-19T03:52:28.347Z,1.00
2022-08-19T03:53:28.309Z,1.00
2022-08-19T03:54:28.318Z,2.00
2022-08-19T03:55:28.300Z,2.00
2022-08-19T03:56:28.290Z,2.00
2022-08-19T03:57:32.126Z,2.00
2022-08-19T03:58:28.295Z,3.00
2022-08-19T03:59:28.271Z,2.00
2022-08-19T04:00:28.279Z,3.00
2022-08-19T04:01:30.398Z,6.00
2022-08-19T04:02:29.239Z,4.00
2022-08-19T04:03:28.266Z,3.00
2022-08-19T04:04:29.295Z,6.00
2022-08-19T04:05:28.226Z,6.00
2022-08-19T04:06:28.213Z,6.00
2022-08-19T04:07:28.206Z,6.00
2022-08-19T04:08:28.197Z,6.00
2022-08-19T04:09:28.215Z,7.00
2022-08-19T04:10:28.187Z,7.00
2022-08-19T04:11:43.434Z,5.00
2022-08-19T04:12:29.185Z,5.00
2022-08-19T04:13:28.165Z,6.00
2022-08-19T04:14:28.169Z,6.00
2022-08-19T04:15:28.146Z,6.00
2022-08-19T04:16:35.073Z,6.00
2022-08-19T04:17:28.161Z,6.00
2022-08-19T04:18:28.134Z,7.00
2022-08-19T04:19:28.115Z,5.00
2022-08-19T04:20:28.114Z,7.00
2022-08-19T04:21:28.108Z,7.00
2022-08-19T04:22:28.101Z,12.00
2022-08-19T04:23:28.111Z,11.00
2022-08-19T04:24:28.079Z,11.00
2022-08-19T04:25:28.092Z,11.00
2022-08-19T04:26:28.070Z,13.00
2022-08-19T04:27:28.060Z,14.00
2022-08-19T04:28:28.067Z,13.00
2022-08-19T04:29:28.078Z,18.00
2022-08-19T04:30:28.059Z,18.00
2022-08-19T04:31:28.032Z,18.00
2022-08-19T04:32:28.034Z,19.00
2022-08-19T04:33:28.533Z,22.00
2022-08-19T04:34:28.009Z,24.00
2022-08-19T04:35:28.000Z,26.00
2022-08-19T04:36:28.010Z,25.00
2022-08-19T04:37:35.430Z,29.00
2022-08-19T04:38:28.982Z,28.00
2022-08-19T04:39:27.978Z,35.00
2022-08-19T04:40:27.961Z,37.00
2022-08-19T04:41:27.956Z,41.00
2022-08-19T04:42:30.753Z,44.00
2022-08-19T04:43:27.947Z,50.00
2022-08-19T04:44:27.941Z,55.00
2022-08-19T04:45:27.933Z,61.00
2022-08-19T04:46:39.840Z,65.00
2022-08-19T04:47:48.218Z,70.00
2022-08-19T04:48:28.930Z,72.00
2022-08-19T04:49:27.906Z,78.00
2022-08-19T04:50:27.953Z,80.00
2022-08-19T04:51:27.885Z,87.00
2022-08-19T04:52:27.876Z,93.00
2022-08-19T04:53:27.866Z,103.00
2022-08-19T04:54:37.433Z,108.00
2022-08-19T04:55:28.853Z,117.00
2022-08-19T04:56:27.857Z,125.00
2022-08-19T04:57:27.844Z,131.00
2022-08-19T04:58:27.831Z,137.00
2022-08-19T04:59:27.853Z,144.00
2022-08-19T05:00:27.818Z,155.00
2022-08-19T05:01:27.832Z,166.00
2022-08-19T05:02:27.801Z,175.00
2022-08-19T05:03:30.566Z,183.00
2022-08-19T05:04:27.810Z,192.00
2022-08-19T05:05:27.802Z,193.00
2022-08-19T05:06:27.771Z,188.00
2022-08-19T05:07:27.765Z,184.00
2022-08-19T05:08:31.354Z,184.00
2022-08-19T05:09:27.752Z,180.00
2022-08-19T05:10:27.739Z,179.00
2022-08-19T05:11:27.754Z,178.00
2022-08-19T05:12:29.374Z,181.00
2022-08-19T05:13:27.723Z,186.00
2022-08-19T05:14:27.710Z,196.00
2022-08-19T05:15:27.725Z,209.00
2022-08-19T05:16:27.701Z,218.00
2022-08-19T05:17:29.646Z,218.00
2022-08-19T05:18:27.694Z,228.00
2022-08-19T05:19:27.683Z,220.00
2022-08-19T05:20:27.698Z,222.00
2022-08-19T05:21:27.664Z,229.00
2022-08-19T05:22:27.656Z,234.00
2022-08-19T05:23:27.654Z,239.00
2022-08-19T05:24:27.639Z,246.00
2022-08-19T05:25:27.648Z,253.00
2022-08-19T05:26:27.619Z,256.00
2022-08-19T05:27:27.638Z,257.00
2022-08-19T05:28:27.614Z,255.00
2022-08-19T05:29:27.594Z,259.00
2022-08-19T05:30:42.377Z,259.00
2022-08-19T05:31:28.609Z,259.00
2022-08-19T05:32:27.576Z,263.00
2022-08-19T05:33:27.567Z,268.00
2022-08-19T05:34:27.553Z,274.00
2022-08-19T05:35:27.567Z,283.00
2022-08-19T05:36:27.550Z,292.00
2022-08-19T05:37:27.534Z,300.00
2022-08-19T05:38:27.526Z,314.00
2022-08-19T05:39:27.525Z,333.00
2022-08-19T05:40:27.528Z,320.00
2022-08-19T05:41:27.528Z,307.00
2022-08-19T05:42:27.552Z,292.00
2022-08-19T05:43:27.496Z,280.00
2022-08-19T05:44:27.482Z,272.00
2022-08-19T05:45:27.470Z,270.00
2022-08-19T05:46:27.965Z,270.00
2022-08-19T05:47:27.499Z,272.00
2022-08-19T05:48:27.449Z,275.00
2022-08-19T05:49:27.448Z,282.00
2022-08-19T05:50:27.438Z,285.00
2022-08-19T05:51:29.258Z,293.00
2022-08-19T05:52:27.423Z,297.00
2022-08-19T05:53:27.439Z,303.00
2022-08-19T05:54:27.407Z,313.00
2022-08-19T05:55:27.435Z,320.00
2022-08-19T05:56:27.403Z,327.00
2022-08-19T05:57:27.387Z,330.00
2022-08-19T05:58:28.234Z,344.00
2022-08-19T05:59:27.373Z,359.00
2022-08-19T06:00:27.385Z,377.00
2022-08-19T06:01:27.416Z,389.00
2022-08-19T06:02:27.468Z,400.00
2022-08-19T06:03:27.348Z,410.00
2022-08-19T06:04:27.356Z,418.00
2022-08-19T06:05:27.334Z,434.00
2022-08-19T06:06:27.359Z,464.00
2022-08-19T06:07:27.415Z,491.00
2022-08-19T06:08:34.277Z,513.00
2022-08-19T06:09:28.297Z,534.00
2022-08-19T06:10:27.361Z,558.00
2022-08-19T06:11:27.278Z,583.00
2022-08-19T06:12:27.268Z,630.00
2022-08-19T06:13:27.286Z,684.00
2022-08-19T06:14:28.038Z,687.00
2022-08-19T06:15:27.246Z,667.00
2022-08-19T06:16:27.243Z,689.00
2022-08-19T06:17:27.234Z,910.00
2022-08-19T06:18:27.255Z,722.00
2022-08-19T06:19:27.218Z,762.00
2022-08-19T06:20:52.593Z,825.00
2022-08-19T06:21:28.228Z,929.00
2022-08-19T06:22:27.194Z,1025.00
2022-08-19T06:23:27.203Z,1126.00
2022-08-19T06:24:27.178Z,1231.00
2022-08-19T06:25:30.419Z,1334.00
2022-08-19T06:26:27.162Z,1433.00
2022-08-19T06:27:27.159Z,1523.00
2022-08-19T06:28:27.153Z,1576.00
2022-08-19T06:29:27.149Z,1613.00
2022-08-19T06:30:27.165Z,1655.00
2022-08-19T06:31:27.128Z,1652.00
2022-08-19T06:32:27.116Z,1601.00
2022-08-19T06:33:27.111Z,1468.00
2022-08-19T06:34:27.105Z,1291.00
2022-08-19T06:35:27.100Z,1170.00
2022-08-19T06:36:27.142Z,1074.00
2022-08-19T06:37:27.092Z,969.00
2022-08-19T06:38:27.096Z,885.00
2022-08-19T06:39:27.071Z,842.00
2022-08-19T06:40:27.084Z,820.00
2022-08-19T06:41:27.071Z,797.00
2022-08-19T06:42:27.061Z,766.00
2022-08-19T06:43:28.120Z,730.00
2022-08-19T06:44:27.038Z,700.00
2022-08-19T06:45:34.749Z,675.00
2022-08-19T06:46:28.049Z,657.00
2022-08-19T06:47:28.845Z,650.00
2022-08-19T06:48:27.012Z,657.00
2022-08-19T06:49:27.003Z,684.00
2022-08-19T06:50:26.987Z,734.00
2022-08-19T06:51:27.052Z,790.00
2022-08-19T06:52:27.002Z,847.00
2022-08-19T06:53:26.987Z,899.00
2022-08-19T06:54:30.939Z,934.00
2022-08-19T06:55:26.953Z,950.00
2022-08-19T06:56:26.951Z,957.00
2022-08-19T06:57:26.978Z,960.00
2022-08-19T06:58:26.956Z,957.00
2022-08-19T06:59:26.942Z,946.00
2022-08-19T07:00:27.091Z,932.00
2022-08-19T07:01:26.920Z,919.00
2022-08-19T07:02:26.919Z,893.00
2022-08-19T07:03:26.931Z,915.00
2022-08-19T07:04:26.905Z,793.00
2022-08-19T07:05:26.891Z,735.00
2022-08-19T07:06:43.559Z,685.00
2022-08-19T07:07:27.869Z,643.00
2022-08-19T07:08:26.925Z,610.00
2022-08-19T07:09:26.874Z,582.00
2022-08-19T07:10:26.860Z,571.00
2022-08-19T07:11:26.848Z,562.00
2022-08-19T07:12:26.842Z,556.00
2022-08-19T07:13:26.826Z,551.00
2022-08-19T07:14:26.816Z,545.00
2022-08-19T07:15:26.834Z,535.00
2022-08-19T07:16:29.359Z,531.00
2022-08-19T07:17:26.794Z,529.00
2022-08-19T07:18:26.797Z,533.00
2022-08-19T07:19:26.793Z,544.00
2022-08-19T07:20:28.579Z,557.00
2022-08-19T07:21:26.787Z,567.00
2022-08-19T07:22:26.758Z,577.00
2022-08-19T07:23:26.821Z,584.00
2022-08-19T07:24:26.741Z,589.00
2022-08-19T07:25:32.083Z,596.00
2022-08-19T07:26:28.272Z,607.00
2022-08-19T07:27:26.720Z,622.00
2022-08-19T07:28:27.810Z,637.00
2022-08-19T07:29:28.548Z,655.00
2022-08-19T07:30:26.695Z,669.00
2022-08-19T07:31:26.692Z,688.00
2022-08-19T07:32:26.709Z,707.00
2022-08-19T07:33:27.958Z,725.00
2022-08-19T07:34:26.671Z,750.00
2022-08-19T07:35:26.670Z,787.00
2022-08-19T07:36:26.652Z,830.00
2022-08-19T07:37:32.014Z,883.00
2022-08-19T07:38:27.660Z,925.00
2022-08-19T07:39:26.636Z,952.00
2022-08-19T07:40:26.620Z,970.00
2022-08-19T07:41:26.614Z,984.00
2022-08-19T07:42:26.606Z,993.00
2022-08-19T07:43:31.379Z,1003.00
2022-08-19T07:44:26.598Z,1021.00
2022-08-19T07:45:26.590Z,1041.00
2022-08-19T07:46:26.575Z,1073.00
2022-08-19T07:47:48.354Z,1109.00
2022-08-19T07:48:27.591Z,1143.00
2022-08-19T07:49:26.553Z,1169.00
2022-08-19T07:50:26.558Z,1193.00
2022-08-19T07:51:36.169Z,1216.00
2022-08-19T07:52:27.535Z,1231.00
2022-08-19T07:53:26.558Z,1245.00
2022-08-19T07:54:26.513Z,1232.00
2022-08-19T07:55:42.025Z,1199.00
2022-08-19T07:56:27.512Z,1155.00
2022-08-19T07:57:26.496Z,1109.00
2022-08-19T07:58:26.517Z,1074.00
2022-08-19T07:59:26.481Z,1053.00
2022-08-19T08:00:26.539Z,1042.00
2022-08-19T08:01:26.514Z,1034.00
2022-08-19T08:02:26.458Z,1025.00
2022-08-19T08:03:26.461Z,1006.00
2022-08-19T08:04:26.469Z,982.00
2022-08-19T08:05:26.450Z,954.00
2022-08-19T08:06:26.433Z,915.00
2022-08-19T08:07:31.559Z,878.00
2022-08-19T08:08:27.641Z,847.00
2022-08-19T08:09:26.413Z,824.00
2022-08-19T08:10:26.497Z,810.00
2022-08-19T08:11:26.399Z,804.00
2022-08-19T08:12:35.126Z,808.00
2022-08-19T08:13:27.407Z,812.00
2022-08-19T08:14:29.519Z,815.00
2022-08-19T08:15:27.424Z,816.00
2022-08-19T08:16:26.357Z,813.00
2022-08-19T08:17:30.999Z,809.00
2022-08-19T08:18:27.627Z,809.00
2022-08-19T08:19:26.341Z,809.00
2022-08-19T08:20:26.350Z,810.00
2022-08-19T08:21:26.330Z,809.00
2022-08-19T08:22:26.316Z,805.00
2022-08-19T08:23:26.752Z,809.00
2022-08-19T08:24:28.483Z,820.00
2022-08-19T08:25:26.298Z,841.00
2022-08-19T08:26:26.289Z,865.00
2022-08-19T08:27:26.473Z,889.00
2022-08-19T08:28:26.310Z,914.00
2022-08-19T08:29:26.276Z,940.00
2022-08-19T08:30:26.256Z,961.00
2022-08-19T08:31:26.269Z,981.00
2022-08-19T08:32:26.265Z,994.00
2022-08-19T08:33:33.926Z,1007.00
2022-08-19T08:34:27.240Z,1015.00
2022-08-19T08:35:26.231Z,1021.00
2022-08-19T08:36:26.220Z,1031.00
2022-08-19T08:37:26.210Z,1044.00
2022-08-19T08:38:26.215Z,1059.00
2022-08-19T08:39:26.190Z,1075.00
2022-08-19T08:40:26.246Z,1093.00
2022-08-19T08:41:26.187Z,1112.00
2022-08-19T08:42:26.179Z,1135.00
2022-08-19T08:43:26.193Z,1160.00
2022-08-19T08:44:26.168Z,1197.00
2022-08-19T08:45:26.158Z,1240.00
2022-08-19T08:46:30.581Z,1289.00
2022-08-19T08:47:26.138Z,1339.00
2022-08-19T08:48:26.124Z,1380.00
2022-08-19T08:49:26.145Z,1418.00
2022-08-19T08:50:26.339Z,1448.00
2022-08-19T08:51:26.127Z,1477.00
2022-08-19T08:52:26.098Z,1509.00
2022-08-19T08:53:31.097Z,1546.00
2022-08-19T08:54:27.106Z,1580.00
2022-08-19T08:55:26.096Z,1615.00
2022-08-19T08:56:26.106Z,1625.00
2022-08-19T08:57:26.092Z,1615.00
2022-08-19T08:58:26.058Z,1609.00
2022-08-19T08:59:26.058Z,1590.00
2022-08-19T09:00:26.034Z,1567.00
2022-08-19T09:01:30.270Z,1533.00
2022-08-19T09:02:26.043Z,1494.00
2022-08-19T09:03:26.014Z,1443.00
2022-08-19T09:04:26.012Z,1410.00
2022-08-19T09:05:26.333Z,1401.00
2022-08-19T09:06:26.112Z,1431.00
2022-08-19T09:07:34.538Z,1508.00
2022-08-19T09:08:26.984Z,1584.00
2022-08-19T09:09:25.978Z,1667.00
2022-08-19T09:10:26.156Z,1739.00
2022-08-19T09:11:42.880Z,1802.00
2022-08-19T09:12:27.183Z,1853.00
2022-08-19T09:13:25.960Z,1914.00
2022-08-19T09:14:49.423Z,1991.00
2022-08-19T09:15:33.570Z,2118.00
2022-08-19T09:16:28.006Z,2319.00
2022-08-19T09:17:25.948Z,2629.00
2022-08-19T09:18:25.903Z,2981.00
2022-08-19T09:19:25.917Z,3241.00
2022-08-19T09:20:26.216Z,3713.00
2022-08-19T09:21:30.428Z,3862.00
2022-08-19T09:22:27.358Z,4119.00
2022-08-19T09:23:27.056Z,4236.00
2022-08-19T09:24:25.890Z,4286.00
2022-08-19T09:25:29.737Z,4379.00
2022-08-19T09:26:25.849Z,4418.00
2022-08-19T09:27:41.756Z,4499.00
2022-08-19T09:28:27.227Z,4418.00
2022-08-19T09:29:25.834Z,4068.00
2022-08-19T09:30:25.837Z,4007.00
2022-08-19T09:31:25.859Z,4103.00
2022-08-19T09:32:26.641Z,4531.00
2022-08-19T09:33:25.801Z,4558.00
2022-08-19T09:34:25.793Z,4585.00
2022-08-19T09:35:25.790Z,4328.00
2022-08-19T09:36:34.475Z,4479.00
2022-08-19T09:37:26.789Z,4735.00
2022-08-19T09:38:25.762Z,4722.00
2022-08-19T09:39:25.759Z,4602.00
2022-08-19T09:40:26.808Z,4447.00
2022-08-19T09:41:25.784Z,4402.00
2022-08-19T09:42:30.422Z,4448.00
2022-08-19T09:43:33.269Z,4501.00
2022-08-19T09:44:26.713Z,4177.00
2022-08-19T09:45:25.730Z,4279.00
2022-08-19T09:46:25.704Z,4516.00
2022-08-19T09:47:25.718Z,4725.00
2022-08-19T09:48:25.716Z,4785.00
2022-08-19T09:49:25.692Z,4850.00
2022-08-19T09:50:25.710Z,4853.00
2022-08-19T09:51:25.724Z,4813.00
2022-08-19T09:52:25.670Z,3611.00
2022-08-19T09:53:26.657Z,3532.00
2022-08-19T09:54:25.664Z,3559.00
2022-08-19T09:55:32.044Z,3453.00
2022-08-19T09:56:26.654Z,3143.00
2022-08-19T09:57:25.634Z,2980.00
2022-08-19T09:58:26.732Z,2790.00
2022-08-19T09:59:25.644Z,2404.00
2022-08-19T10:00:25.630Z,2106.00
2022-08-19T10:01:25.761Z,2044.00
2022-08-19T10:02:25.603Z,1891.00
2022-08-19T10:03:30.011Z,1850.00
2022-08-19T10:04:25.588Z,2449.00
2022-08-19T10:05:26.865Z,3349.00
2022-08-19T10:06:45.798Z,3594.00
2022-08-19T10:07:28.959Z,3656.00
2022-08-19T10:08:26.725Z,2618.00
2022-08-19T10:09:33.952Z,4115.00
2022-08-19T10:10:26.528Z,4075.00
2022-08-19T10:11:28.063Z,3419.00
2022-08-19T10:12:26.518Z,2975.00
2022-08-19T10:13:25.532Z,2886.00
2022-08-19T10:14:25.509Z,2887.00
2022-08-19T10:15:28.792Z,2932.00
2022-08-19T10:16:25.980Z,2954.00
2022-08-19T10:17:27.388Z,2926.00
2022-08-19T10:18:25.478Z,2803.00
2022-08-19T10:19:26.398Z,2616.00
2022-08-19T10:20:25.471Z,2523.00
2022-08-19T10:21:25.594Z,3939.00
2022-08-19T10:22:26.213Z,4267.00
2022-08-19T10:23:25.467Z,4359.00
2022-08-19T10:24:25.439Z,4338.00
2022-08-19T10:25:25.441Z,3956.00
2022-08-19T10:26:26.630Z,4708.00
2022-08-19T10:27:26.340Z,3840.00
2022-08-19T10:28:25.405Z,3943.00
2022-08-19T10:29:32.115Z,4773.00
2022-08-19T10:30:26.393Z,4816.00
2022-08-19T10:31:58.773Z,4862.00
2022-08-19T10:32:34.058Z,4891.00
2022-08-19T10:33:38.814Z,5064.00
2022-08-19T10:34:28.389Z,5183.00
2022-08-19T10:35:25.357Z,4558.00
2022-08-19T10:36:25.362Z,3470.00
2022-08-19T10:37:31.368Z,3291.00
2022-08-19T10:38:32.985Z,3218.00
2022-08-19T10:39:26.327Z,3128.00
2022-08-19T10:40:25.434Z,2990.00
2022-08-19T10:41:25.370Z,2842.00
2022-08-19T10:42:25.306Z,2749.00
2022-08-19T10:43:25.322Z,2727.00
2022-08-19T10:44:25.293Z,2728.00
2022-08-19T10:45:26.311Z,2663.00
2022-08-19T10:46:25.281Z,2496.00
2022-08-19T10:47:26.092Z,2348.00
2022-08-19T10:48:26.282Z,2221.00
2022-08-19T10:49:25.264Z,2116.00
2022-08-19T10:50:28.654Z,2055.00
2022-08-19T10:51:25.258Z,2060.00
2022-08-19T10:52:32.284Z,2215.00
2022-08-19T10:53:26.244Z,2347.00
2022-08-19T10:54:31.204Z,2360.00
2022-08-19T10:55:26.317Z,2377.00
2022-08-19T10:56:25.211Z,2552.00
2022-08-19T10:57:27.937Z,3119.00
2022-08-19T10:58:26.199Z,3793.00
2022-08-19T10:59:26.799Z,4085.00
2022-08-19T11:00:25.184Z,4225.00
2022-08-19T11:01:25.220Z,4298.00
2022-08-19T11:02:25.175Z,4315.00
2022-08-19T11:03:25.179Z,4448.00
2022-08-19T11:04:28.862Z,4335.00
2022-08-19T11:05:25.160Z,4123.00
2022-08-19T11:06:25.147Z,4646.00
2022-08-19T11:07:25.160Z,4648.00
2022-08-19T11:08:25.172Z,3166.00
2022-08-19T11:09:33.142Z,3045.00
2022-08-19T11:10:26.107Z,2985.00
2022-08-19T11:11:25.150Z,2935.00
2022-08-19T11:12:25.107Z,2860.00
2022-08-19T11:13:25.081Z,4148.00
2022-08-19T11:14:25.098Z,4210.00
2022-08-19T11:15:25.112Z,4044.00
2022-08-19T11:16:25.066Z,3963.00
2022-08-19T11:17:25.054Z,3948.00
2022-08-19T11:18:25.053Z,3933.00
2022-08-19T11:19:25.044Z,3794.00
2022-08-19T11:20:25.038Z,2565.00
2022-08-19T11:21:25.122Z,2549.00
2022-08-19T11:22:28.816Z,2534.00
2022-08-19T11:23:26.024Z,2506.00
2022-08-19T11:24:25.009Z,3248.00
2022-08-19T11:25:25.003Z,3630.00
2022-08-19T11:26:24.991Z,3429.00
2022-08-19T11:27:25.022Z,2906.00
2022-08-19T11:28:24.974Z,2846.00
2022-08-19T11:29:24.974Z,2361.00
2022-08-19T11:30:24.958Z,2556.00
2022-08-19T11:31:24.987Z,2357.00
2022-08-19T11:32:24.978Z,2521.00
2022-08-19T11:33:24.961Z,3315.00
2022-08-19T11:34:24.933Z,2836.00
2022-08-19T11:35:24.918Z,2214.00
2022-08-19T11:36:24.915Z,3185.00
2022-08-19T11:37:24.911Z,3716.00
2022-08-19T11:38:24.936Z,3189.00
2022-08-19T11:39:24.896Z,3884.00
2022-08-19T11:40:24.885Z,3878.00
2022-08-19T11:41:24.887Z,3980.00
2022-08-19T11:42:24.871Z,3902.00
2022-08-19T11:43:24.873Z,3802.00
2022-08-19T11:44:24.893Z,3678.00
2022-08-19T11:45:24.869Z,3924.00
2022-08-19T11:46:24.856Z,3732.00
2022-08-19T11:47:24.847Z,3589.00
2022-08-19T11:48:24.835Z,3460.00
2022-08-19T11:49:24.842Z,3317.00
2022-08-19T11:50:24.843Z,3078.00
2022-08-19T11:51:24.820Z,2924.00
2022-08-19T11:52:24.806Z,2821.00
2022-08-19T11:53:24.799Z,2549.00
2022-08-19T11:54:24.812Z,2678.00
2022-08-19T11:55:24.820Z,1864.00
2022-08-19T11:56:24.780Z,1791.00
2022-08-19T11:57:24.771Z,2304.00
2022-08-19T11:58:24.773Z,2656.00
2022-08-19T11:59:24.752Z,2728.00
2022-08-19T12:00:24.767Z,2796.00
2022-08-19T12:01:24.743Z,2933.00
2022-08-19T12:02:24.727Z,3013.00
2022-08-19T12:03:24.737Z,3151.00
2022-08-19T12:04:24.778Z,3191.00
2022-08-19T12:05:24.713Z,3400.00
2022-08-19T12:06:24.704Z,3357.00
2022-08-19T12:07:24.711Z,3344.00
2022-08-19T12:08:24.715Z,3237.00
2022-08-19T12:09:24.678Z,3193.00
2022-08-19T12:10:26.388Z,3242.00
2022-08-19T12:11:24.684Z,3295.00
2022-08-19T12:12:24.662Z,3294.00
2022-08-19T12:13:24.684Z,3269.00
2022-08-19T12:14:24.732Z,3283.00
2022-08-19T12:15:24.637Z,3247.00
2022-08-19T12:16:24.651Z,3230.00
2022-08-19T12:17:24.631Z,3263.00
2022-08-19T12:18:24.728Z,3222.00
2022-08-19T12:19:24.609Z,3225.00
2022-08-19T12:20:24.684Z,3278.00
2022-08-19T12:21:24.617Z,3311.00
2022-08-19T12:22:24.594Z,2605.00
2022-08-19T12:23:24.564Z,2189.00
2022-08-19T12:24:24.569Z,2164.00
2022-08-19T12:25:24.588Z,2145.00
2022-08-19T12:26:24.560Z,2130.00
2022-08-19T12:27:40.126Z,2127.00
2022-08-19T12:28:25.546Z,2132.00
2022-08-19T12:29:24.540Z,2149.00
2022-08-19T12:30:24.567Z,2178.00
2022-08-19T12:31:24.532Z,2384.00
2022-08-19T12:32:24.527Z,3167.00
2022-08-19T12:33:24.541Z,3157.00
2022-08-19T12:34:24.505Z,3248.00
2022-08-19T12:35:24.507Z,3270.00
2022-08-19T12:36:24.551Z,3269.00
2022-08-19T12:37:24.496Z,3305.00